Time;durP1;ratioP1;P1;durP2;ratioP2;P2;SDS_P1;SDS_P2;PMS_P1;PMS_P2;Temp;Humidity;BMP_temperature;BMP_pressure;BME280_temperature;BME280_humidity;BME280_pressure;Samples;Min_cycle;Max_cycle;Signal;HPM_P1;HPM_P2
2021/09/23 00:00:53;;;;;;;9.07;7.17;;;9.40;99.90;;;;;;6245577;28;20250;-75
2021/09/23 00:04:15;;;;;;;8.57;6.83;;;9.40;99.90;;;;;;6245846;28;20202;-75
2021/09/23 00:07:18;;;;;;;9.93;7.13;;;9.40;99.90;;;;;;6245681;28;20196;-74
2021/09/23 00:10:26;;;;;;;10.80;7.07;;;9.30;99.90;;;;;;6245603;28;20229;-74
2021/09/23 00:13:28;;;;;;;13.87;7.80;;;9.30;99.90;;;;;;6227729;28;20234;-74
2021/09/23 00:16:31;;;;;;;10.37;7.60;;;9.30;99.90;;;;;;6244492;28;20193;-74
2021/09/23 00:19:33;;;;;;;9.27;7.57;;;9.30;99.90;;;;;;6245662;28;20190;-74
2021/09/23 00:22:35;;;;;;;7.83;6.80;;;9.30;99.90;;;;;;6243898;28;20207;-74
2021/09/23 00:25:38;;;;;;;9.93;6.97;;;9.30;99.90;;;;;;6248269;28;20211;-74
2021/09/23 00:28:43;;;;;;;13.57;7.30;;;9.30;99.90;;;;;;6249397;28;20303;-74
2021/09/23 00:31:45;;;;;;;12.97;7.70;;;9.30;99.90;;;;;;6250813;28;20195;-74
2021/09/23 00:34:47;;;;;;;9.67;7.30;;;9.30;99.90;;;;;;6249393;28;20272;-74
2021/09/23 00:37:50;;;;;;;10.80;7.57;;;9.30;99.90;;;;;;6250071;28;20196;-74
2021/09/23 00:40:52;;;;;;;9.37;6.70;;;9.30;99.90;;;;;;6232551;28;20199;-74
2021/09/23 00:43:55;;;;;;;10.40;6.47;;;9.30;99.90;;;;;;6249009;28;20289;-74
2021/09/23 00:46:57;;;;;;;8.33;6.57;;;9.20;99.90;;;;;;6248840;28;20192;-74
2021/09/23 00:49:59;;;;;;;11.03;6.80;;;9.20;99.90;;;;;;6232190;28;20227;-74
2021/09/23 00:53:02;;;;;;;9.10;5.90;;;9.20;99.90;;;;;;6248848;28;20294;-74
2021/09/23 00:56:05;;;;;;;11.17;6.43;;;9.20;99.90;;;;;;6224092;28;20504;-74
2021/09/23 00:59:09;;;;;;;8.00;6.73;;;9.20;99.90;;;;;;6244788;28;20670;-75
2021/09/23 01:02:16;;;;;;;10.43;7.83;;;9.10;99.90;;;;;;6222794;28;20234;-74
2021/09/23 01:05:20;;;;;;;11.40;6.50;;;9.10;99.90;;;;;;6223832;28;20777;-74
2021/09/23 01:08:22;;;;;;;11.53;7.43;;;9.10;99.90;;;;;;6235114;28;20267;-75
2021/09/23 01:11:28;;;;;;;8.67;6.90;;;9.00;99.90;;;;;;6249606;28;20227;-74
2021/09/23 01:14:30;;;;;;;10.17;6.43;;;9.00;99.90;;;;;;6248074;28;20739;-74
2021/09/23 01:17:35;;;;;;;9.37;7.10;;;9.00;99.90;;;;;;6231903;28;20702;-74
2021/09/23 01:20:43;;;;;;;12.60;7.23;;;9.00;99.90;;;;;;6249255;28;20241;-74
2021/09/23 01:23:45;;;;;;;11.17;7.07;;;9.00;99.90;;;;;;6248018;28;20749;-74
2021/09/23 01:26:49;;;;;;;11.50;7.33;;;9.00;99.90;;;;;;6247837;28;20279;-74
2021/09/23 01:30:04;;;;;;;13.47;8.30;;;9.00;99.90;;;;;;6247696;28;20315;-74
2021/09/23 01:33:10;;;;;;;11.47;8.70;;;9.00;99.90;;;;;;6223294;28;20202;-74
2021/09/23 01:36:12;;;;;;;16.13;10.60;;;9.20;99.90;;;;;;6211556;28;20699;-74
2021/09/23 01:39:23;;;;;;;13.60;9.10;;;9.30;99.90;;;;;;6233082;28;20684;-74
2021/09/23 01:42:27;;;;;;;21.00;9.97;;;9.40;99.90;;;;;;6231100;28;20194;-74
2021/09/23 01:45:31;;;;;;;12.73;8.47;;;9.60;99.90;;;;;;6230969;28;20226;-74
2021/09/23 01:48:34;;;;;;;13.90;7.70;;;9.70;99.90;;;;;;6230747;28;20244;-74
2021/09/23 01:51:36;;;;;;;14.93;9.13;;;9.80;99.90;;;;;;6247589;28;20224;-74
2021/09/23 01:54:39;;;;;;;10.93;8.10;;;9.80;99.90;;;;;;6214688;28;20203;-74
2021/09/23 01:57:44;;;;;;;10.87;7.43;;;9.90;99.90;;;;;;6222723;28;20324;-74
2021/09/23 02:00:47;;;;;;;13.43;7.83;;;9.90;99.90;;;;;;6219052;28;20233;-74
2021/09/23 02:03:50;;;;;;;9.67;7.07;;;10.00;99.90;;;;;;6230622;28;20285;-74
2021/09/23 02:07:15;;;;;;;10.33;7.60;;;10.10;99.90;;;;;;6247412;28;20212;-74
2021/09/23 02:10:22;;;;;;;12.67;7.33;;;10.10;99.90;;;;;;6247094;28;20212;-74
2021/09/23 02:13:26;;;;;;;9.20;7.07;;;10.10;99.90;;;;;;6246771;28;20200;-74
2021/09/23 02:16:29;;;;;;;7.83;6.57;;;10.10;99.90;;;;;;6226921;28;20303;-75
2021/09/23 02:19:40;;;;;;;9.53;7.20;;;10.10;99.90;;;;;;6246870;28;20188;-74
2021/09/23 02:22:43;;;;;;;7.27;6.20;;;10.00;99.90;;;;;;6246635;28;20928;-75
2021/09/23 02:25:47;;;;;;;10.23;6.00;;;9.90;99.90;;;;;;6230560;28;20694;-74
2021/09/23 02:28:50;;;;;;;9.27;6.23;;;9.90;99.90;;;;;;6247558;28;20680;-74
2021/09/23 02:31:52;;;;;;;12.93;8.13;;;9.80;99.90;;;;;;6229251;28;20381;-74
2021/09/23 02:34:56;;;;;;;13.70;8.33;;;9.80;99.90;;;;;;6205319;28;20243;-74
2021/09/23 02:37:59;;;;;;;9.70;6.77;;;9.90;99.90;;;;;;6224347;28;20250;-74
2021/09/23 02:41:01;;;;;;;8.37;7.20;;;9.90;99.90;;;;;;6245107;28;20192;-74
2021/09/23 02:44:03;;;;;;;13.30;7.33;;;9.90;99.90;;;;;;6246248;28;20672;-74
2021/09/23 02:47:06;;;;;;;15.30;6.83;;;9.90;99.90;;;;;;6245769;28;20334;-74
2021/09/23 02:50:10;;;;;;;10.37;6.93;;;9.90;99.90;;;;;;6246111;28;20349;-75
2021/09/23 02:53:12;;;;;;;9.67;6.37;;;10.10;99.90;;;;;;6240009;28;20291;-75
2021/09/23 02:56:14;;;;;;;11.57;6.77;;;10.10;99.90;;;;;;6213356;28;20686;-75
2021/09/23 02:59:17;;;;;;;8.53;6.70;;;10.10;99.90;;;;;;6244665;28;20207;-75
2021/09/23 03:02:19;;;;;;;10.53;6.90;;;10.10;99.90;;;;;;6229152;28;20775;-75
2021/09/23 03:05:23;;;;;;;8.03;5.77;;;10.20;99.90;;;;;;6245440;28;20221;-75
2021/09/23 03:08:25;;;;;;;13.67;7.20;;;10.30;99.90;;;;;;6245867;28;20204;-75
2021/09/23 03:11:28;;;;;;;11.03;6.10;;;10.30;99.90;;;;;;6246600;28;20269;-75
2021/09/23 03:14:30;;;;;;;10.30;5.50;;;10.20;99.90;;;;;;6245836;28;20200;-75
2021/09/23 03:17:33;;;;;;;13.63;6.30;;;10.20;99.90;;;;;;6220876;28;20730;-75
2021/09/23 03:20:35;;;;;;;11.63;6.27;;;10.20;99.90;;;;;;6233207;28;20199;-75
2021/09/23 03:23:37;;;;;;;9.00;6.27;;;10.30;99.90;;;;;;6237993;28;20667;-74
2021/09/23 03:26:40;;;;;;;10.97;5.97;;;10.40;99.90;;;;;;6228627;28;20199;-75
2021/09/23 03:29:44;;;;;;;6.87;5.20;;;10.50;99.90;;;;;;6247132;28;20787;-75
2021/09/23 03:32:46;;;;;;;10.47;5.97;;;10.60;99.90;;;;;;6245249;28;20192;-75
2021/09/23 03:35:49;;;;;;;10.53;5.70;;;10.70;99.90;;;;;;6246363;28;20192;-75
2021/09/23 03:38:53;;;;;;;10.33;5.27;;;10.80;99.90;;;;;;6246477;28;20270;-75
2021/09/23 03:41:56;;;;;;;9.27;5.53;;;10.80;99.90;;;;;;6246201;28;20266;-75
2021/09/23 03:44:58;;;;;;;7.87;5.50;;;10.80;99.90;;;;;;6228561;28;20572;-75
2021/09/23 03:48:01;;;;;;;8.10;5.37;;;10.80;99.90;;;;;;6245870;28;20584;-75
2021/09/23 03:51:04;;;;;;;11.90;5.97;;;10.90;99.90;;;;;;6228307;28;20196;-76
2021/09/23 03:54:06;;;;;;;9.10;5.37;;;10.90;99.90;;;;;;6246535;28;20188;-75
2021/09/23 03:57:13;;;;;;;8.73;5.77;;;10.90;99.90;;;;;;6244724;28;20254;-75
2021/09/23 04:00:20;;;;;;;10.93;5.30;;;11.00;99.90;;;;;;6233578;28;20230;-75
2021/09/23 04:03:22;;;;;;;10.50;5.40;;;11.00;99.90;;;;;;6244524;28;20250;-75
2021/09/23 04:06:25;;;;;;;9.53;5.17;;;11.00;99.90;;;;;;6244721;28;20192;-75
2021/09/23 04:09:27;;;;;;;8.97;5.70;;;10.90;99.90;;;;;;6244724;28;20226;-75
2021/09/23 04:12:30;;;;;;;9.03;5.67;;;10.80;99.90;;;;;;6227785;28;20278;-75
2021/09/23 04:15:32;;;;;;;8.03;4.73;;;10.80;99.90;;;;;;6219852;28;20228;-75
2021/09/23 04:18:36;;;;;;;7.30;4.93;;;10.80;99.90;;;;;;6203957;28;20279;-75
2021/09/23 04:21:39;;;;;;;9.63;5.13;;;10.80;99.90;;;;;;6236260;28;20204;-76
2021/09/23 04:24:44;;;;;;;12.27;5.50;;;10.70;99.90;;;;;;6230229;28;20204;-75
2021/09/23 04:27:47;;;;;;;6.90;5.00;;;10.70;99.90;;;;;;6244129;28;20201;-75
2021/09/23 04:30:50;;;;;;;10.10;5.90;;;10.80;99.90;;;;;;6243948;28;20302;-75
2021/09/23 04:33:53;;;;;;;5.37;4.17;;;10.70;99.90;;;;;;6243934;28;20282;-75
2021/09/23 04:36:55;;;;;;;7.90;4.13;;;10.70;99.90;;;;;;6245653;28;20221;-75
2021/09/23 04:39:57;;;;;;;8.03;4.73;;;10.60;99.90;;;;;;6243822;28;20208;-75
2021/09/23 04:43:01;;;;;;;9.23;5.33;;;10.50;99.90;;;;;;6243944;28;20193;-75
2021/09/23 04:46:04;;;;;;;9.40;5.10;;;10.50;99.90;;;;;;6245653;28;20322;-75
2021/09/23 04:49:07;;;;;;;7.80;4.90;;;10.40;99.90;;;;;;6243763;28;20303;-75
2021/09/23 04:52:10;;;;;;;6.97;4.70;;;10.40;99.90;;;;;;6243890;28;20196;-75
2021/09/23 04:55:13;;;;;;;8.83;5.47;;;10.30;99.90;;;;;;6243622;28;20198;-75
2021/09/23 04:58:16;;;;;;;13.77;6.27;;;10.30;99.90;;;;;;6243803;28;20203;-75
2021/09/23 05:01:18;;;;;;;9.30;5.90;;;10.40;99.90;;;;;;6243706;28;20248;-75
2021/09/23 05:04:21;;;;;;;10.93;5.20;;;10.50;99.90;;;;;;6219281;28;20474;-76
2021/09/23 05:07:23;;;;;;;9.60;5.73;;;10.60;99.90;;;;;;6241476;28;20195;-75
2021/09/23 05:10:25;;;;;;;7.33;5.70;;;10.70;99.90;;;;;;6244639;28;20232;-75
2021/09/23 05:13:28;;;;;;;6.57;4.90;;;10.80;99.90;;;;;;6249380;28;20275;-75
2021/09/23 05:16:30;;;;;;;8.37;5.00;;;10.80;99.90;;;;;;6231538;28;20199;-75
2021/09/23 05:19:33;;;;;;;10.27;4.80;;;10.80;99.90;;;;;;6249262;28;20724;-75
2021/09/23 05:22:36;;;;;;;6.80;4.77;;;10.90;99.90;;;;;;6231536;28;20295;-75
2021/09/23 05:25:38;;;;;;;7.37;4.67;;;10.90;99.90;;;;;;6248032;28;20644;-75
2021/09/23 05:28:40;;;;;;;14.17;5.97;;;10.90;99.90;;;;;;6247633;28;20221;-75
2021/09/23 05:31:42;;;;;;;6.87;5.00;;;11.00;99.90;;;;;;6225524;28;20209;-75
2021/09/23 05:34:47;;;;;;;7.87;5.13;;;11.10;99.90;;;;;;6232029;28;20568;-75
2021/09/23 05:37:50;;;;;;;10.77;4.80;;;11.20;99.90;;;;;;6247486;28;20535;-75
2021/09/23 05:40:53;;;;;;;8.97;5.03;;;11.30;99.90;;;;;;6247268;28;20214;-76
2021/09/23 05:43:56;;;;;;;9.87;5.60;;;11.40;99.90;;;;;;6248593;28;20185;-75
2021/09/23 05:47:00;;;;;;;10.87;4.60;;;11.50;99.90;;;;;;6247154;28;20204;-75
2021/09/23 05:50:04;;;;;;;11.87;4.80;;;11.60;99.90;;;;;;6248346;28;20692;-75
2021/09/23 05:53:07;;;;;;;7.33;4.20;;;11.70;99.90;;;;;;6247384;28;20264;-75
2021/09/23 05:56:10;;;;;;;9.17;4.53;;;11.80;99.90;;;;;;6222514;28;20337;-75
2021/09/23 05:59:12;;;;;;;6.73;4.13;;;11.90;99.90;;;;;;6230617;28;20202;-75
2021/09/23 06:02:15;;;;;;;6.50;4.43;;;11.90;99.90;;;;;;6221926;28;20231;-75
2021/09/23 06:05:19;;;;;;;5.87;4.10;;;12.00;99.90;;;;;;6230232;28;20198;-75
2021/09/23 06:08:22;;;;;;;10.07;4.70;;;12.00;99.90;;;;;;6248540;28;20245;-74
2021/09/23 06:11:24;;;;;;;8.40;4.43;;;12.10;99.90;;;;;;6247858;28;20193;-75
2021/09/23 06:14:28;;;;;;;7.07;4.03;;;12.20;99.90;;;;;;6246730;28;20200;-75
2021/09/23 06:17:30;;;;;;;8.20;4.33;;;12.30;99.90;;;;;;6247718;28;20190;-74
2021/09/23 06:20:34;;;;;;;10.87;3.97;;;12.40;99.90;;;;;;6246456;28;20202;-75
2021/09/23 06:23:37;;;;;;;5.70;3.67;;;12.40;99.90;;;;;;6245371;28;20559;-75
2021/09/23 06:26:39;;;;;;;7.53;3.33;;;12.50;99.90;;;;;;6247675;28;20679;-75
2021/09/23 06:29:43;;;;;;;9.87;3.60;;;12.50;99.90;;;;;;6231902;28;20218;-75
2021/09/23 06:32:46;;;;;;;7.17;3.33;;;12.60;99.90;;;;;;6232838;28;20203;-75
2021/09/23 06:35:48;;;;;;;6.53;3.40;;;12.60;99.90;;;;;;6229992;28;20198;-75
2021/09/23 06:38:51;;;;;;;7.40;3.87;;;12.60;99.90;;;;;;6245955;28;20202;-75
2021/09/23 06:41:53;;;;;;;7.20;3.40;;;12.70;99.90;;;;;;6245815;28;20646;-75
2021/09/23 06:44:55;;;;;;;7.60;3.03;;;12.70;99.90;;;;;;6245716;28;20205;-75
2021/09/23 06:47:57;;;;;;;5.87;3.20;;;12.70;99.90;;;;;;6228042;28;20328;-75
2021/09/23 06:51:00;;;;;;;8.03;3.47;;;12.60;99.90;;;;;;6246212;28;20705;-75
2021/09/23 06:54:02;;;;;;;7.10;3.07;;;12.60;99.90;;;;;;6246211;28;20199;-75
2021/09/23 06:57:04;;;;;;;6.10;3.50;;;12.50;99.90;;;;;;6228365;28;20191;-75
2021/09/23 07:00:14;;;;;;;5.10;2.70;;;12.50;99.90;;;;;;6245614;28;20238;-75
2021/09/23 07:03:35;;;;;;;6.33;2.70;;;12.50;99.90;;;;;;6245834;28;20238;-75
2021/09/23 07:07:05;;;;;;;6.53;2.73;;;12.50;99.90;;;;;;6223034;28;20202;-75
2021/09/23 07:10:14;;;;;;;6.83;3.10;;;12.40;99.90;;;;;;6245561;28;20203;-75
2021/09/23 07:13:17;;;;;;;6.03;3.00;;;12.40;99.90;;;;;;6228952;28;20197;-75
2021/09/23 07:16:19;;;;;;;5.47;2.70;;;12.40;99.90;;;;;;6244725;28;20187;-75
2021/09/23 07:19:22;;;;;;;4.47;2.73;;;12.50;99.90;;;;;;6228378;28;20223;-75
2021/09/23 07:22:29;;;;;;;5.57;2.77;;;12.50;99.90;;;;;;6245720;28;20619;-75
2021/09/23 07:25:33;;;;;;;6.20;3.07;;;12.60;99.90;;;;;;6227677;28;20203;-75
2021/09/23 07:28:36;;;;;;;7.27;3.30;;;12.70;99.90;;;;;;6245126;28;20272;-75
2021/09/23 07:31:39;;;;;;;4.27;3.10;;;12.80;99.90;;;;;;6244200;28;20196;-75
2021/09/23 07:34:42;;;;;;;6.30;3.03;;;12.80;99.90;;;;;;6211915;28;20558;-75
2021/09/23 07:37:44;;;;;;;7.20;3.20;;;13.00;99.90;;;;;;6245873;28;20191;-75
2021/09/23 07:40:47;;;;;;;6.87;2.93;;;13.10;99.90;;;;;;6227663;28;20233;-75
2021/09/23 07:43:49;;;;;;;10.47;3.40;;;13.30;99.90;;;;;;6244533;28;20217;-75
2021/09/23 07:46:54;;;;;;;6.83;3.23;;;13.50;99.90;;;;;;6244453;28;20284;-75
2021/09/23 07:49:57;;;;;;;5.93;2.73;;;13.80;99.90;;;;;;6226583;28;20211;-75
2021/09/23 07:53:00;;;;;;;6.83;2.53;;;14.00;99.90;;;;;;6226766;28;20594;-75
2021/09/23 07:56:02;;;;;;;4.63;2.60;;;14.20;99.90;;;;;;6227945;28;20197;-75
2021/09/23 07:59:05;;;;;;;5.13;2.60;;;14.50;99.90;;;;;;6245302;28;20192;-75
2021/09/23 08:02:08;;;;;;;5.70;2.77;;;14.60;99.90;;;;;;6219881;28;20238;-75
2021/09/23 08:05:12;;;;;;;5.97;2.80;;;14.90;99.90;;;;;;6227822;28;20225;-75
2021/09/23 08:08:14;;;;;;;2.60;2.20;;;15.20;99.90;;;;;;6244166;28;20203;-75
2021/09/23 08:11:19;;;;;;;8.97;2.93;;;15.40;99.90;;;;;;6244107;28;20212;-76
2021/09/23 08:14:25;;;;;;;5.57;2.40;;;15.60;99.90;;;;;;6243994;28;20200;-75
2021/09/23 08:17:46;;;;;;;4.23;2.00;;;15.80;99.90;;;;;;6221298;28;20181;-75
2021/09/23 08:21:06;;;;;;;3.87;2.20;;;16.10;99.90;;;;;;6233399;28;20197;-75
2021/09/23 08:24:09;;;;;;;5.07;2.50;;;16.40;99.90;;;;;;6235943;28;20263;-76
2021/09/23 08:27:11;;;;;;;6.40;2.60;;;16.60;99.90;;;;;;6223084;28;20343;-76
2021/09/23 08:30:15;;;;;;;4.77;2.50;;;16.90;99.90;;;;;;6249799;28;20713;-76
2021/09/23 08:33:18;;;;;;;6.33;2.90;;;17.10;99.90;;;;;;6247186;28;20702;-76
2021/09/23 08:36:21;;;;;;;6.10;2.90;;;17.30;99.90;;;;;;6230397;28;20648;-76
2021/09/23 08:39:23;;;;;;;5.33;2.70;;;17.40;99.90;;;;;;6245142;28;20195;-76
2021/09/23 08:42:28;;;;;;;6.13;2.83;;;17.60;99.90;;;;;;6243619;28;20195;-76
2021/09/23 08:45:31;;;;;;;3.10;2.10;;;17.90;99.90;;;;;;6229144;28;20223;-76
2021/09/23 08:48:34;;;;;;;3.60;2.10;;;18.10;99.90;;;;;;6232263;28;20199;-76
2021/09/23 08:51:38;;;;;;;4.57;1.90;;;18.30;99.90;;;;;;6231829;28;20208;-76
2021/09/23 08:54:42;;;;;;;4.27;2.27;;;18.40;99.90;;;;;;6232584;28;20188;-77
2021/09/23 08:57:44;;;;;;;6.03;2.50;;;18.60;99.90;;;;;;6248392;28;20566;-76
2021/09/23 09:01:07;;;;;;;3.70;2.17;;;18.80;99.90;;;;;;6238672;28;20247;-76
2021/09/23 09:04:32;;;;;;;4.67;1.90;;;19.00;99.90;;;;;;6248415;28;20223;-76
2021/09/23 09:08:13;;;;;;;7.83;2.73;;;19.30;99.90;;;;;;6208432;28;20565;-76
2021/09/23 09:11:46;;;;;;;4.50;2.07;;;19.50;98.60;;;;;;6247870;28;20216;-76
2021/09/23 09:14:48;;;;;;;6.03;2.20;;;19.40;97.10;;;;;;6247731;28;20203;-76
2021/09/23 09:17:51;;;;;;;5.87;2.53;;;19.70;98.00;;;;;;6231659;28;20192;-77
2021/09/23 09:21:02;;;;;;;5.73;2.40;;;19.90;95.40;;;;;;6247662;28;20204;-76
2021/09/23 09:24:04;;;;;;;5.67;2.10;;;19.90;96.70;;;;;;6248009;28;20204;-77
2021/09/23 09:27:26;;;;;;;5.17;2.13;;;20.10;96.50;;;;;;6247809;28;20191;-77
2021/09/23 09:30:31;;;;;;;5.77;2.00;;;20.30;95.90;;;;;;6255923;28;20212;-77
2021/09/23 09:33:38;;;;;;;6.03;2.30;;;20.30;94.10;;;;;;6247641;28;20188;-77
2021/09/23 09:36:51;;;;;;;4.33;2.33;;;20.30;93.00;;;;;;6247388;28;20756;-76
2021/09/23 09:39:58;;;;;;;2.83;1.80;;;20.40;92.40;;;;;;6231215;28;20253;-77
2021/09/23 09:43:06;;;;;;;4.70;2.33;;;20.60;92.50;;;;;;6247536;28;20553;-77
2021/09/23 09:46:24;;;;;;;3.70;1.83;;;20.80;91.00;;;;;;6247691;28;20189;-76
2021/09/23 09:49:30;;;;;;;2.53;1.77;;;21.00;91.70;;;;;;6247099;28;20762;-77
2021/09/23 09:52:33;;;;;;;3.87;2.00;;;21.20;91.00;;;;;;6230443;28;20203;-77
2021/09/23 09:55:39;;;;;;;3.03;1.70;;;21.30;89.10;;;;;;6247066;28;20262;-77
2021/09/23 09:59:07;;;;;;;3.53;1.77;;;21.50;89.60;;;;;;6246711;28;20581;-77
2021/09/23 10:02:11;;;;;;;5.73;2.00;;;21.80;88.00;;;;;;6246780;28;20243;-76
2021/09/23 10:05:19;;;;;;;2.47;1.57;;;22.00;90.00;;;;;;6230464;28;20203;-77
2021/09/23 10:08:22;;;;;;;3.13;2.23;;;22.10;87.10;;;;;;6230395;28;20207;-76
2021/09/23 10:11:26;;;;;;;4.00;1.97;;;22.10;88.20;;;;;;6246867;28;20299;-77
2021/09/23 10:14:34;;;;;;;3.53;1.90;;;22.10;82.60;;;;;;6246387;28;20188;-77
2021/09/23 10:17:38;;;;;;;3.33;1.67;;;22.20;85.00;;;;;;6230087;28;20219;-77
2021/09/23 10:20:42;;;;;;;4.37;1.77;;;22.40;86.80;;;;;;6247722;28;20534;-77
2021/09/23 10:23:45;;;;;;;2.70;1.87;;;22.70;85.10;;;;;;6246295;28;20203;-77
2021/09/23 10:26:50;;;;;;;4.67;1.63;;;23.00;83.50;;;;;;6246583;28;20215;-77
2021/09/23 10:29:53;;;;;;;3.57;2.17;;;23.10;82.40;;;;;;6247737;28;20594;-77
2021/09/23 10:32:58;;;;;;;2.80;1.97;;;23.20;82.00;;;;;;6229648;28;20195;-77
2021/09/23 10:36:00;;;;;;;3.67;1.80;;;23.40;78.40;;;;;;6246358;28;20199;-77
2021/09/23 10:39:09;;;;;;;3.30;1.73;;;23.50;76.70;;;;;;6205821;28;20200;-77
2021/09/23 10:42:20;;;;;;;3.07;1.80;;;23.70;74.90;;;;;;6235522;28;20205;-78
2021/09/23 10:45:27;;;;;;;2.33;1.90;;;23.90;72.60;;;;;;6241546;28;20203;-78
2021/09/23 10:48:37;;;;;;;3.43;1.60;;;24.20;74.10;;;;;;6229281;28;20296;-78
2021/09/23 10:51:40;;;;;;;2.43;1.93;;;24.40;73.60;;;;;;6245542;28;20287;-77
2021/09/23 10:54:51;;;;;;;3.53;1.80;;;24.40;69.50;;;;;;6237710;28;20201;-77
2021/09/23 10:57:54;;;;;;;3.97;1.97;;;24.50;67.50;;;;;;6230254;28;20214;-78
2021/09/23 11:01:01;;;;;;;5.45;1.77;;;24.60;66.40;;;;;;6245075;28;20614;-78
2021/09/23 11:04:04;;;;;;;4.07;2.05;;;24.80;66.40;;;;;;6245966;28;20206;-77
2021/09/23 11:07:10;;;;;;;2.38;1.65;;;24.70;67.20;;;;;;6245423;28;20200;-78
2021/09/23 11:10:20;;;;;;;4.90;2.22;;;24.60;65.50;;;;;;6245007;28;20588;-77
2021/09/23 11:13:24;;;;;;;3.97;1.75;;;24.80;66.30;;;;;;6228699;28;20199;-78
2021/09/23 11:16:28;;;;;;;1.88;1.73;;;25.00;67.50;;;;;;6229046;28;20587;-77
2021/09/23 11:19:32;;;;;;;3.90;1.95;;;25.20;64.20;;;;;;6220756;28;20197;-78
2021/09/23 11:22:40;;;;;;;2.28;1.70;;;25.40;61.60;;;;;;6234875;28;20890;-78
2021/09/23 11:25:51;;;;;;;2.30;2.10;;;25.30;66.10;;;;;;6246591;28;20184;-78
2021/09/23 11:28:58;;;;;;;3.72;2.17;;;25.30;65.40;;;;;;6244857;28;20196;-77
2021/09/23 11:32:01;;;;;;;3.88;2.13;;;25.50;61.90;;;;;;6228539;28;20683;-77
2021/09/23 11:35:05;;;;;;;2.88;1.98;;;25.50;59.60;;;;;;6244809;28;20188;-77
2021/09/23 11:38:10;;;;;;;2.28;2.00;;;25.70;59.50;;;;;;6244569;28;20713;-78
2021/09/23 11:41:14;;;;;;;3.15;2.10;;;25.90;60.20;;;;;;6228166;28;20196;-78
2021/09/23 11:44:23;;;;;;;3.88;2.45;;;26.00;62.20;;;;;;6244668;28;20215;-77
2021/09/23 11:47:26;;;;;;;5.32;2.10;;;26.10;59.10;;;;;;6245760;28;20192;-77
2021/09/23 11:50:35;;;;;;;3.95;2.47;;;26.10;59.20;;;;;;6244628;28;20208;-78
2021/09/23 11:53:38;;;;;;;4.72;2.47;;;26.20;59.30;;;;;;6244633;28;20199;-78
2021/09/23 11:56:43;;;;;;;3.88;2.47;;;26.40;57.60;;;;;;6228079;28;20196;-77
2021/09/23 11:59:57;;;;;;;3.15;2.45;;;26.40;55.60;;;;;;6244386;28;20212;-78
2021/09/23 12:02:59;;;;;;;3.08;2.08;;;26.60;56.80;;;;;;6236099;28;20302;-77
2021/09/23 12:06:10;;;;;;;2.78;2.08;;;26.70;55.60;;;;;;6219821;28;20188;-78
2021/09/23 12:09:17;;;;;;;3.63;2.28;;;26.50;57.70;;;;;;6219707;28;20445;-78
2021/09/23 12:12:25;;;;;;;2.30;2.10;;;26.30;56.90;;;;;;6219642;28;20726;-78
2021/09/23 12:15:30;;;;;;;2.75;2.10;;;26.40;55.60;;;;;;6219687;28;20201;-78
2021/09/23 12:18:37;;;;;;;2.45;2.15;;;26.60;58.00;;;;;;6211232;28;20591;-79
2021/09/23 12:21:39;;;;;;;2.72;2.03;;;27.00;58.00;;;;;;6223585;28;20200;-78
2021/09/23 12:24:42;;;;;;;3.33;2.42;;;27.20;54.30;;;;;;6224597;28;20295;-78
2021/09/23 12:28:04;;;;;;;2.80;2.45;;;27.40;53.70;;;;;;6225711;28;20200;-78
2021/09/23 12:31:11;;;;;;;3.85;2.35;;;27.60;54.70;;;;;;6208741;28;20224;-79
2021/09/23 12:34:22;;;;;;;4.47;2.25;;;27.50;53.20;;;;;;6224732;28;20255;-78
2021/09/23 12:37:27;;;;;;;2.35;2.15;;;27.40;51.90;;;;;;6225211;28;20211;-78
2021/09/23 12:40:30;;;;;;;4.28;2.40;;;27.60;53.70;;;;;;6225579;28;20778;-78
2021/09/23 12:43:34;;;;;;;2.85;2.33;;;27.50;52.90;;;;;;6208202;28;20266;-78
2021/09/23 12:46:36;;;;;;;3.75;2.22;;;27.20;52.50;;;;;;6225594;28;20481;-78
2021/09/23 12:49:51;;;;;;;2.60;2.30;;;27.40;51.90;;;;;;6223863;28;20287;-78
2021/09/23 12:52:55;;;;;;;2.72;2.08;;;27.90;54.00;;;;;;6231638;28;20189;-78
2021/09/23 12:56:00;;;;;;;3.92;2.58;;;28.50;53.90;;;;;;6225122;28;20251;-78
2021/09/23 12:59:22;;;;;;;2.40;2.20;;;28.90;50.20;;;;;;6225219;28;20192;-78
2021/09/23 13:02:25;;;;;;;2.55;2.35;;;29.20;49.10;;;;;;6227640;28;20239;-78
2021/09/23 13:05:29;;;;;;;2.03;1.90;;;29.20;48.70;;;;;;6226846;28;20652;-78
2021/09/23 13:08:43;;;;;;;3.83;2.40;;;29.40;48.90;;;;;;6232105;28;20200;-78
2021/09/23 13:11:47;;;;;;;2.17;1.98;;;29.40;48.20;;;;;;6249177;28;20208;-78
2021/09/23 13:15:38;;;;;;;3.83;2.50;;;29.50;46.10;;;;;;6248093;28;20616;-77
2021/09/23 13:18:41;;;;;;;2.60;2.38;;;29.40;48.20;;;;;;6231329;28;20195;-78
2021/09/23 13:21:49;;;;;;;3.05;2.28;;;29.50;46.10;;;;;;6231268;28;20258;-78
2021/09/23 13:24:53;;;;;;;4.85;2.45;;;30.10;46.40;;;;;;6247786;28;20745;-78
2021/09/23 13:27:57;;;;;;;3.88;2.53;;;30.60;45.60;;;;;;6231201;28;20196;-78
2021/09/23 13:31:25;;;;;;;2.97;2.50;;;30.90;45.70;;;;;;6247002;28;20216;-78
2021/09/23 13:34:31;;;;;;;2.80;2.58;;;30.80;44.40;;;;;;6231308;28;20223;-79
2021/09/23 13:37:43;;;;;;;2.92;2.65;;;30.50;46.40;;;;;;6247747;28;20200;-78
2021/09/23 13:40:47;;;;;;;3.22;2.78;;;30.90;44.80;;;;;;6247144;28;20335;-78
2021/09/23 13:43:51;;;;;;;3.60;2.80;;;31.40;42.80;;;;;;6246906;28;20200;-77
2021/09/23 13:47:04;;;;;;;3.25;2.95;;;31.70;43.80;;;;;;6232332;28;20196;-78
2021/09/23 13:50:08;;;;;;;2.78;2.45;;;31.90;44.20;;;;;;6248199;28;20283;-78
2021/09/23 13:53:11;;;;;;;2.42;2.22;;;32.10;44.10;;;;;;6247230;28;20283;-78
2021/09/23 13:56:23;;;;;;;3.53;2.50;;;31.70;43.00;;;;;;6230418;28;20180;-78
2021/09/23 13:59:27;;;;;;;3.33;2.70;;;30.70;42.60;;;;;;6246743;28;20743;-78
2021/09/23 14:02:29;;;;;;;3.00;2.70;;;29.50;43.50;;;;;;6238830;28;20241;-77
2021/09/23 14:05:33;;;;;;;3.58;2.47;;;28.50;45.40;;;;;;6222593;28;20205;-78
2021/09/23 14:08:39;;;;;;;2.80;2.42;;;27.80;46.70;;;;;;6206603;28;20197;-78
2021/09/23 14:12:14;;;;;;;3.22;2.72;;;27.40;47.20;;;;;;6200318;28;20244;-77
2021/09/23 14:15:24;;;;;;;4.82;2.58;;;26.90;48.00;;;;;;6222361;28;20660;-77
2021/09/23 14:18:27;;;;;;;2.80;2.50;;;26.30;49.10;;;;;;6214064;28;20680;-77
2021/09/23 14:21:50;;;;;;;3.75;2.55;;;25.60;50.10;;;;;;6216095;28;20196;-77
2021/09/23 14:24:52;;;;;;;2.85;2.40;;;25.00;52.60;;;;;;6221695;28;20207;-77
2021/09/23 14:27:55;;;;;;;4.18;2.53;;;24.50;55.00;;;;;;6222497;28;20323;-77
2021/09/23 14:30:58;;;;;;;2.38;2.17;;;24.20;55.80;;;;;;6221919;28;20213;-77
2021/09/23 14:34:01;;;;;;;3.33;2.70;;;23.80;56.90;;;;;;6221513;28;20201;-77
2021/09/23 14:37:06;;;;;;;4.77;2.70;;;23.50;59.20;;;;;;6221759;28;20185;-77
2021/09/23 14:40:10;;;;;;;4.70;2.97;;;23.20;62.00;;;;;;6221374;28;20276;-76
2021/09/23 14:43:15;;;;;;;3.57;2.83;;;22.80;65.40;;;;;;6220552;28;20193;-77
2021/09/23 14:46:17;;;;;;;3.30;3.00;;;22.30;69.20;;;;;;6221950;28;20189;-77
2021/09/23 14:49:20;;;;;;;3.17;2.73;;;21.90;70.50;;;;;;6222892;28;20199;-77
2021/09/23 14:52:23;;;;;;;4.37;2.67;;;21.80;72.30;;;;;;6224566;28;20230;-76
2021/09/23 14:55:26;;;;;;;4.47;2.77;;;21.50;72.00;;;;;;6221794;28;20674;-76
2021/09/23 14:58:28;;;;;;;3.20;2.90;;;21.40;72.70;;;;;;6222296;28;20215;-76
2021/09/23 15:01:31;;;;;;;5.10;2.90;;;21.10;74.70;;;;;;6231611;28;20706;-76
2021/09/23 15:04:34;;;;;;;3.20;2.73;;;20.90;75.00;;;;;;6245660;28;20212;-76
2021/09/23 15:07:38;;;;;;;3.17;2.43;;;20.80;76.20;;;;;;6245361;28;20204;-76
2021/09/23 15:10:41;;;;;;;5.23;2.60;;;20.70;76.50;;;;;;6244801;28;20219;-76
2021/09/23 15:13:43;;;;;;;3.40;2.63;;;20.50;79.00;;;;;;6245027;28;20212;-76
2021/09/23 15:16:46;;;;;;;5.23;2.50;;;20.40;80.70;;;;;;6246251;28;20192;-76
2021/09/23 15:19:49;;;;;;;3.20;2.80;;;20.20;84.10;;;;;;6246237;28;20591;-76
2021/09/23 15:22:51;;;;;;;4.93;3.07;;;19.90;86.10;;;;;;6228601;28;20563;-76
2021/09/23 15:25:54;;;;;;;7.10;3.27;;;19.70;88.40;;;;;;6244994;28;20196;-76
2021/09/23 15:28:56;;;;;;;4.37;3.10;;;19.60;90.10;;;;;;6246048;28;20223;-76
2021/09/23 15:32:00;;;;;;;5.53;3.23;;;19.30;91.10;;;;;;6204484;28;20236;-76
2021/09/23 15:35:03;;;;;;;3.73;2.60;;;19.20;92.10;;;;;;6233483;28;20200;-76
2021/09/23 15:38:07;;;;;;;6.20;2.83;;;19.00;93.10;;;;;;6239399;28;20181;-76
2021/09/23 15:41:09;;;;;;;4.67;2.97;;;18.80;94.10;;;;;;6244629;28;20207;-76
2021/09/23 15:44:12;;;;;;;4.77;2.87;;;18.70;95.10;;;;;;6246205;28;20566;-76
2021/09/23 15:47:14;;;;;;;5.87;3.13;;;18.70;95.80;;;;;;6244633;28;20195;-76
2021/09/23 15:50:18;;;;;;;4.20;3.07;;;18.60;96.50;;;;;;6245706;28;20663;-77
2021/09/23 15:53:21;;;;;;;3.10;2.60;;;18.40;97.40;;;;;;6245558;28;20208;-76
2021/09/23 15:56:23;;;;;;;3.33;3.00;;;18.30;98.00;;;;;;6244515;28;20188;-76
2021/09/23 15:59:26;;;;;;;4.30;2.60;;;18.10;98.90;;;;;;6245627;28;20801;-76
2021/09/23 16:02:28;;;;;;;4.57;3.03;;;18.00;99.60;;;;;;6244888;28;20613;-76